createdAt,value
2017-08-23T00:00:36.239Z,1005.0
2017-08-23T00:01:38.297Z,1005.0
2017-08-23T00:02:40.224Z,1005.0
2017-08-23T00:03:42.262Z,1005.0
2017-08-23T00:04:44.180Z,1004.9
2017-08-23T00:05:45.906Z,1005.0
2017-08-23T00:06:47.668Z,1005.0
2017-08-23T00:07:49.426Z,1004.9
2017-08-23T00:08:51.147Z,1005.0
2017-08-23T00:09:52.905Z,1005.0
2017-08-23T00:10:54.575Z,1005.0
2017-08-23T00:11:56.347Z,1005.0
2017-08-23T00:12:58.154Z,1005.0
2017-08-23T00:13:59.883Z,1004.9
2017-08-23T00:15:01.616Z,1005.0
2017-08-23T00:16:03.368Z,1004.9
2017-08-23T00:17:05.155Z,1004.9
2017-08-23T00:18:06.991Z,1004.9
2017-08-23T00:19:08.727Z,1004.9
2017-08-23T00:20:10.576Z,1004.9
2017-08-23T00:21:12.380Z,1004.9
2017-08-23T00:22:14.404Z,1004.9
2017-08-23T00:23:16.078Z,1004.9
2017-08-23T00:24:17.739Z,1004.8
2017-08-23T00:25:19.438Z,1004.8
2017-08-23T00:26:21.283Z,1004.9
2017-08-23T00:27:23.043Z,1004.9
2017-08-23T00:28:25.042Z,1004.9
2017-08-23T00:29:26.826Z,1004.9
2017-08-23T00:30:28.685Z,1004.8
2017-08-23T00:31:30.526Z,1004.9
2017-08-23T00:32:32.258Z,1004.8
2017-08-23T00:33:34.140Z,1004.9
2017-08-23T00:34:35.952Z,1004.8
2017-08-23T00:35:37.944Z,1004.9
2017-08-23T00:36:39.955Z,1004.9
2017-08-23T00:37:41.796Z,1004.9
2017-08-23T00:38:43.651Z,1004.9
2017-08-23T00:39:45.329Z,1004.8
2017-08-23T00:40:47.141Z,1004.8
2017-08-23T00:41:48.920Z,1004.8
2017-08-23T00:42:51.009Z,1004.9
2017-08-23T00:43:52.921Z,1004.9
2017-08-23T00:44:54.835Z,1004.9
2017-08-23T00:45:56.697Z,1005.0
2017-08-23T00:46:58.948Z,1004.9
2017-08-23T00:48:00.702Z,1004.9
2017-08-23T00:49:02.550Z,1004.9
2017-08-23T00:50:04.223Z,1004.9
2017-08-23T00:51:05.948Z,1004.9
2017-08-23T00:52:07.683Z,1004.9
2017-08-23T00:53:09.333Z,1004.8
2017-08-23T00:54:11.086Z,1004.8
2017-08-23T00:55:12.859Z,1004.8
2017-08-23T00:56:14.657Z,1004.8
2017-08-23T00:57:16.406Z,1004.8
2017-08-23T00:58:18.210Z,1004.9
2017-08-23T00:59:20.013Z,1004.9
2017-08-23T01:00:21.681Z,1004.9
2017-08-23T01:01:23.432Z,1004.9
2017-08-23T01:02:25.170Z,1004.8
2017-08-23T01:03:27.006Z,1004.8
2017-08-23T01:04:28.751Z,1004.8
2017-08-23T01:05:30.448Z,1004.8
2017-08-23T01:06:32.227Z,1004.8
2017-08-23T01:07:34.050Z,1004.9
2017-08-23T01:08:35.874Z,1004.9
2017-08-23T01:09:37.601Z,1004.9
2017-08-23T01:10:39.512Z,1004.9
2017-08-23T01:11:41.274Z,1004.8
2017-08-23T01:12:43.057Z,1004.8
2017-08-23T01:13:44.846Z,1004.8
2017-08-23T01:14:46.639Z,1004.9
2017-08-23T01:15:48.342Z,1004.9
2017-08-23T01:16:50.101Z,1004.9
2017-08-23T01:17:51.958Z,1004.9
2017-08-23T01:18:53.898Z,1004.9
2017-08-23T01:19:55.727Z,1004.8
2017-08-23T01:20:57.463Z,1004.9
2017-08-23T01:21:59.580Z,1004.8
2017-08-23T01:23:01.522Z,1004.8
2017-08-23T01:24:03.283Z,1004.8
2017-08-23T01:25:05.018Z,1004.8
2017-08-23T01:26:06.894Z,1004.8
2017-08-23T01:27:08.713Z,1004.8
2017-08-23T01:28:10.587Z,1004.8
2017-08-23T01:29:12.386Z,1004.8
2017-08-23T01:30:14.201Z,1004.7
2017-08-23T01:31:16.030Z,1004.8
2017-08-23T01:32:17.934Z,1004.8
2017-08-23T01:33:19.664Z,1004.7
2017-08-23T01:34:21.667Z,1004.7
2017-08-23T01:35:23.345Z,1004.7
2017-08-23T01:36:25.101Z,1004.7
2017-08-23T01:37:26.855Z,1004.7
2017-08-23T01:38:28.616Z,1004.7
2017-08-23T01:39:30.332Z,1004.7
2017-08-23T01:40:32.201Z,1004.7
2017-08-23T01:41:33.889Z,1004.7
2017-08-23T01:42:35.710Z,1004.6
2017-08-23T01:43:37.408Z,1004.7
2017-08-23T01:44:39.229Z,1004.7
2017-08-23T01:45:40.901Z,1004.7
2017-08-23T01:46:42.559Z,1004.6
2017-08-23T01:47:44.212Z,1004.6
2017-08-23T01:48:45.970Z,1004.6
2017-08-23T01:49:47.697Z,1004.7
2017-08-23T01:50:49.407Z,1004.6
2017-08-23T01:51:51.026Z,1004.6
2017-08-23T01:52:52.638Z,1004.6
2017-08-23T01:53:54.352Z,1004.5
2017-08-23T01:54:56.059Z,1004.6
2017-08-23T01:55:57.863Z,1004.5
2017-08-23T01:56:59.443Z,1004.5
2017-08-23T01:58:01.139Z,1004.5
2017-08-23T01:59:02.738Z,1004.4
2017-08-23T02:00:04.458Z,1004.5
2017-08-23T02:01:06.034Z,1004.4
2017-08-23T02:02:07.620Z,1004.4
2017-08-23T02:03:09.203Z,1004.4
2017-08-23T02:04:10.851Z,1004.4
2017-08-23T02:05:12.529Z,1004.4
2017-08-23T02:06:14.259Z,1004.5
2017-08-23T02:07:15.974Z,1004.5
2017-08-23T02:08:17.638Z,1004.4
2017-08-23T02:09:19.311Z,1004.4
2017-08-23T02:10:20.936Z,1004.4
2017-08-23T02:11:22.568Z,1004.4
2017-08-23T02:12:24.248Z,1004.4
2017-08-23T02:13:25.967Z,1004.4
2017-08-23T02:14:27.684Z,1004.4
2017-08-23T02:15:29.406Z,1004.3
2017-08-23T02:16:31.064Z,1004.3
2017-08-23T02:17:32.805Z,1004.3
2017-08-23T02:18:34.524Z,1004.4
2017-08-23T02:19:36.152Z,1004.3
2017-08-23T02:20:37.798Z,1004.3
2017-08-23T02:21:39.487Z,1004.3
2017-08-23T02:22:41.092Z,1004.3
2017-08-23T02:23:42.742Z,1004.3
2017-08-23T02:24:44.389Z,1004.3
2017-08-23T02:25:46.031Z,1004.3
2017-08-23T02:26:47.675Z,1004.3
2017-08-23T02:27:49.412Z,1004.3
2017-08-23T02:28:51.108Z,1004.3
2017-08-23T02:29:52.754Z,1004.3
2017-08-23T02:30:54.460Z,1004.3
2017-08-23T02:31:56.207Z,1004.3
2017-08-23T02:32:57.802Z,1004.3
2017-08-23T02:33:59.462Z,1004.2
2017-08-23T02:35:01.186Z,1004.3
2017-08-23T02:36:02.899Z,1004.3
2017-08-23T02:37:04.651Z,1004.3
2017-08-23T02:38:06.304Z,1004.2
2017-08-23T02:39:07.954Z,1004.2
2017-08-23T02:40:09.630Z,1004.2
2017-08-23T02:41:11.245Z,1004.2
2017-08-23T02:42:12.868Z,1004.3
2017-08-23T02:43:14.501Z,1004.3
2017-08-23T02:44:16.136Z,1004.2
2017-08-23T02:45:18.179Z,1004.2
2017-08-23T02:46:20.055Z,1004.3
2017-08-23T02:47:21.840Z,1004.3
2017-08-23T02:48:23.607Z,1004.2
2017-08-23T02:49:25.231Z,1004.3
2017-08-23T02:50:27.011Z,1004.3
2017-08-23T02:51:28.538Z,1004.3
2017-08-23T02:52:30.168Z,1004.3
2017-08-23T02:53:31.746Z,1004.3
2017-08-23T02:54:33.471Z,1004.2
2017-08-23T02:55:35.115Z,1004.2
2017-08-23T02:56:36.730Z,1004.3
2017-08-23T02:57:38.362Z,1004.2
2017-08-23T02:58:39.931Z,1004.3
2017-08-23T02:59:41.575Z,1004.3
2017-08-23T03:00:43.311Z,1004.3
2017-08-23T03:01:44.989Z,1004.2
2017-08-23T03:02:46.703Z,1004.2
2017-08-23T03:03:48.530Z,1004.2
2017-08-23T03:04:50.155Z,1004.2
2017-08-23T03:05:51.882Z,1004.2
2017-08-23T03:06:53.524Z,1004.2
2017-08-23T03:07:55.116Z,1004.2
2017-08-23T03:08:56.843Z,1004.3
2017-08-23T03:09:58.572Z,1004.3
2017-08-23T03:11:00.180Z,1004.3
2017-08-23T03:12:01.799Z,1004.3
2017-08-23T03:13:03.561Z,1004.3
2017-08-23T03:14:05.500Z,1004.3
2017-08-23T03:15:07.311Z,1004.3
2017-08-23T03:16:09.092Z,1004.3
2017-08-23T03:17:10.742Z,1004.3
2017-08-23T03:18:12.347Z,1004.2
2017-08-23T03:19:14.014Z,1004.3
2017-08-23T03:20:15.718Z,1004.3
2017-08-23T03:21:17.392Z,1004.3
2017-08-23T03:22:19.087Z,1004.3
2017-08-23T03:23:20.739Z,1004.2
2017-08-23T03:24:22.445Z,1004.2
2017-08-23T03:25:24.129Z,1004.3
2017-08-23T03:26:25.794Z,1004.3
2017-08-23T03:27:27.570Z,1004.3
2017-08-23T03:28:29.296Z,1004.2
2017-08-23T03:29:30.879Z,1004.3
2017-08-23T03:30:32.509Z,1004.3
2017-08-23T03:31:34.063Z,1004.2
2017-08-23T03:32:35.822Z,1004.2
2017-08-23T03:33:37.402Z,1004.2
2017-08-23T03:34:39.027Z,1004.2
2017-08-23T03:35:40.711Z,1004.2
2017-08-23T03:36:42.317Z,1004.2
2017-08-23T03:37:44.044Z,1004.1
2017-08-23T03:38:45.686Z,1004.2
2017-08-23T03:39:47.273Z,1004.2
2017-08-23T03:40:49.020Z,1004.3
2017-08-23T03:41:50.818Z,1004.3
2017-08-23T03:42:52.481Z,1004.2
2017-08-23T03:43:54.218Z,1004.3
2017-08-23T03:44:56.084Z,1004.3
2017-08-23T03:45:57.850Z,1004.4
2017-08-23T03:46:59.459Z,1004.3
2017-08-23T03:48:01.079Z,1004.4
2017-08-23T03:49:02.667Z,1004.3
2017-08-23T03:50:04.358Z,1004.3
2017-08-23T03:51:06.226Z,1004.3
2017-08-23T03:52:08.080Z,1004.3
2017-08-23T03:53:15.646Z,1004.3
2017-08-23T03:54:17.227Z,1004.3
2017-08-23T03:55:18.829Z,1004.3
2017-08-23T03:56:20.560Z,1004.3
2017-08-23T03:57:22.212Z,1004.3
2017-08-23T03:58:23.996Z,1004.3
2017-08-23T03:59:25.591Z,1004.2
2017-08-23T04:00:27.266Z,1004.2
2017-08-23T04:01:28.962Z,1004.2
2017-08-23T04:02:30.690Z,1004.2
2017-08-23T04:03:32.392Z,1004.3
2017-08-23T04:04:34.123Z,1004.3
2017-08-23T04:05:35.870Z,1004.3
2017-08-23T04:06:37.469Z,1004.3
2017-08-23T04:07:39.095Z,1004.3
2017-08-23T04:08:40.800Z,1004.3
2017-08-23T04:09:42.435Z,1004.3
2017-08-23T04:10:44.149Z,1004.3
2017-08-23T04:11:45.868Z,1004.3
2017-08-23T04:12:47.597Z,1004.3
2017-08-23T04:13:49.301Z,1004.3
2017-08-23T04:14:51.076Z,1004.4
2017-08-23T04:15:52.779Z,1004.4
2017-08-23T04:16:54.478Z,1004.4
2017-08-23T04:17:56.243Z,1004.3
2017-08-23T04:18:57.938Z,1004.4
2017-08-23T04:19:59.607Z,1004.4
2017-08-23T04:21:01.415Z,1004.4
2017-08-23T04:22:03.125Z,1004.3
2017-08-23T04:23:04.782Z,1004.3
2017-08-23T04:24:06.423Z,1004.3
2017-08-23T04:25:08.017Z,1004.4
2017-08-23T04:26:09.703Z,1004.4
2017-08-23T04:27:11.343Z,1004.4
2017-08-23T04:28:13.223Z,1004.3
2017-08-23T04:29:14.899Z,1004.4
2017-08-23T04:30:16.550Z,1004.4
2017-08-23T04:31:18.294Z,1004.4
2017-08-23T04:32:19.918Z,1004.3
2017-08-23T04:33:21.498Z,1004.5
2017-08-23T04:34:23.121Z,1004.4
2017-08-23T04:35:24.717Z,1004.3
2017-08-23T04:36:26.380Z,1004.3
2017-08-23T04:37:28.047Z,1004.3
2017-08-23T04:38:29.606Z,1004.3
2017-08-23T04:39:31.341Z,1004.3
2017-08-23T04:40:32.950Z,1004.3
2017-08-23T04:41:34.541Z,1004.3
2017-08-23T04:42:36.212Z,1004.4
2017-08-23T04:43:37.882Z,1004.4
2017-08-23T04:44:39.596Z,1004.4
2017-08-23T04:45:41.166Z,1004.4
2017-08-23T04:46:42.842Z,1004.3
2017-08-23T04:47:44.474Z,1004.3
2017-08-23T04:48:46.168Z,1004.3
2017-08-23T04:49:47.856Z,1004.3
2017-08-23T04:50:49.502Z,1004.4
2017-08-23T04:51:51.138Z,1004.4
2017-08-23T04:52:52.760Z,1004.4
2017-08-23T04:53:54.417Z,1004.2
2017-08-23T04:54:56.108Z,1004.3
2017-08-23T04:55:57.789Z,1004.3
2017-08-23T04:56:59.458Z,1004.3
2017-08-23T04:58:01.109Z,1004.3
2017-08-23T04:59:02.829Z,1004.3
2017-08-23T05:00:04.452Z,1004.3
2017-08-23T05:01:06.058Z,1004.2
2017-08-23T05:02:07.722Z,1004.3
2017-08-23T05:03:09.378Z,1004.2
2017-08-23T05:04:11.059Z,1004.3
2017-08-23T05:05:12.699Z,1004.3
2017-08-23T05:06:14.293Z,1004.2
2017-08-23T05:07:15.927Z,1004.2
2017-08-23T05:08:17.683Z,1004.2
2017-08-23T05:09:19.401Z,1004.2
2017-08-23T05:10:21.077Z,1004.2
2017-08-23T05:11:22.701Z,1004.3
2017-08-23T05:12:24.369Z,1004.2
2017-08-23T05:13:26.114Z,1004.3
2017-08-23T05:14:27.823Z,1004.3
2017-08-23T05:15:29.584Z,1004.3
2017-08-23T05:16:31.267Z,1004.3
2017-08-23T05:17:33.004Z,1004.3
2017-08-23T05:18:34.571Z,1004.2
2017-08-23T05:19:36.145Z,1004.2
2017-08-23T05:20:37.865Z,1004.3
2017-08-23T05:21:39.574Z,1004.3
2017-08-23T05:22:41.200Z,1004.3
2017-08-23T05:23:42.943Z,1004.4
2017-08-23T05:24:44.618Z,1004.3
2017-08-23T05:25:46.439Z,1004.3
2017-08-23T05:26:48.159Z,1004.4
2017-08-23T05:27:49.779Z,1004.4
2017-08-23T05:28:51.415Z,1004.5
2017-08-23T05:29:53.193Z,1004.5
2017-08-23T05:30:54.859Z,1004.5
2017-08-23T05:31:56.552Z,1004.6
2017-08-23T05:32:58.202Z,1004.6
2017-08-23T05:33:59.910Z,1004.6
2017-08-23T05:35:01.575Z,1004.6
2017-08-23T05:36:03.233Z,1004.6
2017-08-23T05:37:04.889Z,1004.6
2017-08-23T05:38:06.613Z,1004.6
2017-08-23T05:39:08.411Z,1004.6
2017-08-23T05:40:10.146Z,1004.6
2017-08-23T05:41:11.774Z,1004.6
2017-08-23T05:42:13.490Z,1004.6
2017-08-23T05:43:15.169Z,1004.6
2017-08-23T05:44:16.791Z,1004.6
2017-08-23T05:45:18.471Z,1004.6
2017-08-23T05:46:20.197Z,1004.6
2017-08-23T05:47:21.799Z,1004.6
2017-08-23T05:48:23.652Z,1004.6
2017-08-23T05:49:25.343Z,1004.6
2017-08-23T05:50:26.996Z,1004.6
2017-08-23T05:51:28.625Z,1004.7
2017-08-23T05:52:30.263Z,1004.7
2017-08-23T05:53:31.961Z,1004.7
2017-08-23T05:54:33.627Z,1004.7
2017-08-23T05:55:35.271Z,1004.7
2017-08-23T05:56:36.932Z,1004.7
2017-08-23T05:57:38.584Z,1004.7
2017-08-23T05:58:40.265Z,1004.8
2017-08-23T05:59:41.950Z,1004.7
2017-08-23T06:00:43.492Z,1004.7
2017-08-23T06:01:45.168Z,1004.7
2017-08-23T06:02:46.819Z,1004.7
2017-08-23T06:03:48.477Z,1004.7
2017-08-23T06:04:50.100Z,1004.7
2017-08-23T06:05:51.778Z,1004.7
2017-08-23T06:06:53.443Z,1004.7
2017-08-23T06:07:55.223Z,1004.7
2017-08-23T06:08:56.898Z,1004.7
2017-08-23T06:09:58.604Z,1004.7
2017-08-23T06:11:00.352Z,1004.7
2017-08-23T06:12:02.211Z,1004.6
2017-08-23T06:13:03.935Z,1004.7
2017-08-23T06:14:05.684Z,1004.7
2017-08-23T06:15:07.341Z,1004.7
2017-08-23T06:16:09.028Z,1004.7
2017-08-23T06:17:10.654Z,1004.8
2017-08-23T06:18:12.418Z,1004.7
2017-08-23T06:19:14.130Z,1004.8
2017-08-23T06:20:15.649Z,1004.7
2017-08-23T06:21:17.257Z,1004.7
2017-08-23T06:22:19.011Z,1004.7
2017-08-23T06:23:20.638Z,1004.8
2017-08-23T06:24:22.352Z,1004.7
2017-08-23T06:25:24.061Z,1004.7
2017-08-23T06:26:25.734Z,1004.7
2017-08-23T06:27:27.380Z,1004.7
2017-08-23T06:28:29.046Z,1004.7
2017-08-23T06:29:30.742Z,1004.7
2017-08-23T06:30:32.373Z,1004.7
2017-08-23T06:31:34.000Z,1004.7
2017-08-23T06:32:35.781Z,1004.7
2017-08-23T06:33:37.616Z,1004.7
2017-08-23T06:34:39.474Z,1004.7
2017-08-23T06:35:41.192Z,1004.7
2017-08-23T06:36:42.759Z,1004.7
2017-08-23T06:37:44.470Z,1004.7
2017-08-23T06:38:46.084Z,1004.7
2017-08-23T06:39:47.771Z,1004.7
2017-08-23T06:40:49.517Z,1004.7
2017-08-23T06:41:51.179Z,1004.7
2017-08-23T06:42:52.836Z,1004.7
2017-08-23T06:43:54.542Z,1004.8
2017-08-23T06:44:56.560Z,1004.8
2017-08-23T06:45:58.229Z,1004.8
2017-08-23T06:46:59.822Z,1004.7
2017-08-23T06:48:01.754Z,1004.7
2017-08-23T06:49:03.315Z,1004.7
2017-08-23T06:50:05.088Z,1004.7
2017-08-23T06:51:06.611Z,1004.7
2017-08-23T06:52:08.291Z,1004.7
2017-08-23T06:53:09.903Z,1004.7
2017-08-23T06:54:11.593Z,1004.8
2017-08-23T06:55:13.234Z,1004.7
2017-08-23T06:56:15.012Z,1004.7
2017-08-23T06:57:16.736Z,1004.7
2017-08-23T06:58:18.457Z,1004.7
2017-08-23T06:59:20.085Z,1004.7
2017-08-23T07:00:21.786Z,1004.7
2017-08-23T07:01:49.931Z,1004.7
2017-08-23T07:02:51.613Z,1004.7
2017-08-23T07:03:53.268Z,1004.7
2017-08-23T07:04:54.954Z,1004.7
2017-08-23T07:05:56.638Z,1004.7
2017-08-23T07:06:58.416Z,1004.7
2017-08-23T07:08:00.069Z,1004.7
2017-08-23T07:09:01.868Z,1004.7
2017-08-23T07:10:03.508Z,1004.7
2017-08-23T07:11:05.080Z,1004.7
2017-08-23T07:12:06.729Z,1004.7
2017-08-23T07:13:08.369Z,1004.7
2017-08-23T07:14:10.072Z,1004.8
2017-08-23T07:15:11.685Z,1004.8
2017-08-23T07:16:13.421Z,1004.8
2017-08-23T07:17:15.024Z,1004.8
2017-08-23T07:18:16.581Z,1004.8
2017-08-23T07:19:18.309Z,1004.9
2017-08-23T07:20:19.925Z,1004.8
2017-08-23T07:21:21.478Z,1004.8
2017-08-23T07:22:23.094Z,1004.9
2017-08-23T07:23:24.668Z,1004.8
2017-08-23T07:24:26.210Z,1004.8
2017-08-23T07:25:27.812Z,1004.8
2017-08-23T07:26:29.519Z,1004.9
2017-08-23T07:27:31.166Z,1004.9
2017-08-23T07:28:33.321Z,1004.9
2017-08-23T07:29:34.924Z,1004.9
2017-08-23T07:30:36.563Z,1005.0
2017-08-23T07:31:38.222Z,1004.9
2017-08-23T07:32:39.814Z,1005.0
2017-08-23T07:33:41.437Z,1004.9
2017-08-23T07:34:43.210Z,1005.0
2017-08-23T07:35:44.743Z,1004.9
2017-08-23T07:36:46.315Z,1005.0
2017-08-23T07:37:47.954Z,1005.0
2017-08-23T07:38:49.565Z,1005.0
2017-08-23T07:39:51.269Z,1005.0
2017-08-23T07:40:52.998Z,1005.0
2017-08-23T07:41:54.622Z,1005.0
2017-08-23T07:42:56.409Z,1005.0
2017-08-23T07:43:58.168Z,1005.1
2017-08-23T07:44:59.888Z,1005.0
2017-08-23T07:46:01.540Z,1005.1
2017-08-23T07:47:03.282Z,1005.1
2017-08-23T07:48:04.996Z,1005.1
2017-08-23T07:49:06.685Z,1005.1
2017-08-23T07:50:08.290Z,1005.1
2017-08-23T07:51:09.926Z,1005.1
2017-08-23T07:52:11.594Z,1005.2
2017-08-23T07:53:13.354Z,1005.1
2017-08-23T07:54:14.976Z,1005.1
2017-08-23T07:55:16.703Z,1005.1
2017-08-23T07:56:18.433Z,1005.1
2017-08-23T07:57:20.113Z,1005.1
2017-08-23T07:58:21.975Z,1005.1
2017-08-23T07:59:23.692Z,1005.1
2017-08-23T08:00:25.564Z,1005.2
2017-08-23T08:01:51.941Z,1005.1
2017-08-23T08:02:53.661Z,1005.2
2017-08-23T08:03:55.395Z,1005.2
2017-08-23T08:04:57.160Z,1005.1
2017-08-23T08:05:58.873Z,1005.1
2017-08-23T08:07:00.624Z,1005.2
2017-08-23T08:08:02.426Z,1005.2
2017-08-23T08:09:04.670Z,1005.2
2017-08-23T08:10:06.869Z,1005.2
2017-08-23T08:11:08.623Z,1005.2
2017-08-23T08:12:10.316Z,1005.1
2017-08-23T08:13:12.043Z,1005.2
2017-08-23T08:14:13.744Z,1005.2
2017-08-23T08:15:15.460Z,1005.2
2017-08-23T08:16:17.147Z,1005.2
2017-08-23T08:17:18.857Z,1005.2
2017-08-23T08:18:20.642Z,1005.2
2017-08-23T08:19:22.375Z,1005.2
2017-08-23T08:20:24.041Z,1005.2
2017-08-23T08:21:25.697Z,1005.2
2017-08-23T08:22:27.341Z,1005.2
2017-08-23T08:23:29.047Z,1005.2
2017-08-23T08:24:30.789Z,1005.2
2017-08-23T08:25:32.557Z,1005.2
2017-08-23T08:26:34.168Z,1005.1
2017-08-23T08:27:35.757Z,1005.1
2017-08-23T08:28:37.449Z,1005.1
2017-08-23T08:29:39.098Z,1005.1
2017-08-23T08:30:40.742Z,1005.1
2017-08-23T08:31:42.446Z,1005.1
2017-08-23T08:32:44.084Z,1005.1
2017-08-23T08:33:47.083Z,1005.0
2017-08-23T08:34:49.230Z,1005.1
2017-08-23T08:35:51.036Z,1005.0
2017-08-23T08:36:52.657Z,1005.0
2017-08-23T08:37:54.379Z,1005.1
2017-08-23T08:38:56.149Z,1005.1
2017-08-23T08:39:57.798Z,1005.1
2017-08-23T08:40:59.441Z,1005.1
2017-08-23T08:42:01.266Z,1005.1
2017-08-23T08:43:03.025Z,1005.1
2017-08-23T08:44:04.732Z,1005.1
2017-08-23T08:45:06.405Z,1005.1
2017-08-23T08:46:08.102Z,1005.1
2017-08-23T08:47:09.763Z,1005.1
2017-08-23T08:48:11.442Z,1005.1
2017-08-23T08:49:13.047Z,1005.1
2017-08-23T08:50:14.671Z,1005.1
2017-08-23T08:51:16.355Z,1005.1
2017-08-23T08:52:18.059Z,1005.2
2017-08-23T08:53:19.710Z,1005.1
2017-08-23T08:54:21.310Z,1005.2
2017-08-23T08:55:22.901Z,1005.1
2017-08-23T08:56:24.475Z,1005.1
2017-08-23T08:57:26.182Z,1005.1
2017-08-23T08:58:27.793Z,1005.1
2017-08-23T08:59:29.454Z,1005.1
2017-08-23T09:00:31.141Z,1005.1
2017-08-23T09:01:50.092Z,1005.1
2017-08-23T09:02:51.750Z,1005.1
2017-08-23T09:03:53.425Z,1005.1
2017-08-23T09:04:55.137Z,1005.1
2017-08-23T09:05:56.787Z,1005.1
2017-08-23T09:06:58.512Z,1005.0
2017-08-23T09:08:00.209Z,1005.0
2017-08-23T09:09:01.837Z,1005.0
2017-08-23T09:10:03.545Z,1005.0
2017-08-23T09:11:05.190Z,1005.0
2017-08-23T09:12:06.755Z,1005.0
2017-08-23T09:13:08.359Z,1005.0
2017-08-23T09:14:10.381Z,1005.0
2017-08-23T09:15:11.963Z,1005.0
2017-08-23T09:16:13.603Z,1005.0
2017-08-23T09:17:15.285Z,1005.0
2017-08-23T09:18:16.957Z,1005.0
2017-08-23T09:19:18.705Z,1005.0
2017-08-23T09:20:20.405Z,1005.0
2017-08-23T09:21:22.002Z,1005.0
2017-08-23T09:22:23.639Z,1004.9
2017-08-23T09:23:27.114Z,1004.9
2017-08-23T09:24:28.893Z,1004.8
2017-08-23T09:25:30.608Z,1004.9
2017-08-23T09:26:33.435Z,1004.8
2017-08-23T09:27:35.145Z,1004.8
2017-08-23T09:28:36.736Z,1004.8
2017-08-23T09:29:39.070Z,1004.8
2017-08-23T09:30:40.793Z,1004.8
2017-08-23T09:31:42.788Z,1004.8
2017-08-23T09:32:44.415Z,1004.8
2017-08-23T09:33:46.354Z,1004.7
2017-08-23T09:34:48.272Z,1004.7
2017-08-23T09:35:49.875Z,1004.7
2017-08-23T09:36:51.614Z,1004.7
2017-08-23T09:37:53.454Z,1004.7
2017-08-23T09:38:55.166Z,1004.7
2017-08-23T09:39:56.852Z,1004.8
2017-08-23T09:40:58.601Z,1004.7
2017-08-23T09:42:00.232Z,1004.7
2017-08-23T09:43:01.976Z,1004.8
2017-08-23T09:44:03.605Z,1004.8
2017-08-23T09:45:05.198Z,1004.7
2017-08-23T09:46:06.922Z,1004.7
2017-08-23T09:47:08.570Z,1004.8
2017-08-23T09:48:10.159Z,1004.8
2017-08-23T09:49:13.113Z,1004.8
2017-08-23T09:50:15.209Z,1004.8
2017-08-23T09:51:17.339Z,1004.8
2017-08-23T09:52:19.749Z,1004.8
2017-08-23T09:53:21.865Z,1004.7
2017-08-23T09:54:23.974Z,1004.8
2017-08-23T09:55:26.189Z,1004.8
2017-08-23T09:56:29.043Z,1004.8
2017-08-23T09:57:31.286Z,1004.8
2017-08-23T09:58:34.096Z,1004.8
2017-08-23T09:59:36.740Z,1004.8
2017-08-23T10:01:51.391Z,1004.8
2017-08-23T10:02:54.272Z,1004.7
2017-08-23T10:03:56.538Z,1004.7
2017-08-23T10:04:58.540Z,1004.7
2017-08-23T10:06:00.635Z,1004.7
2017-08-23T10:07:02.820Z,1004.6
2017-08-23T10:08:05.468Z,1004.6
2017-08-23T10:09:07.300Z,1004.7
2017-08-23T10:10:08.989Z,1004.6
2017-08-23T10:11:11.135Z,1004.7
2017-08-23T10:12:14.038Z,1004.7
2017-08-23T10:13:16.220Z,1004.7
2017-08-23T10:14:18.443Z,1004.7
2017-08-23T10:15:20.716Z,1004.7
2017-08-23T10:16:23.188Z,1004.6
2017-08-23T10:17:24.915Z,1004.7
2017-08-23T10:18:26.626Z,1004.6
2017-08-23T10:19:28.802Z,1004.6
2017-08-23T10:20:30.492Z,1004.6
2017-08-23T10:21:32.288Z,1004.6
2017-08-23T10:22:33.905Z,1004.6
2017-08-23T10:23:35.515Z,1004.6
2017-08-23T10:24:37.206Z,1004.6
2017-08-23T10:25:39.424Z,1004.6
2017-08-23T10:26:41.604Z,1004.5
2017-08-23T10:27:43.203Z,1004.5
2017-08-23T10:28:44.946Z,1004.4
2017-08-23T10:29:46.487Z,1004.5
2017-08-23T10:30:48.118Z,1004.4
2017-08-23T10:31:49.789Z,1004.4
2017-08-23T10:32:51.433Z,1004.4
2017-08-23T10:33:53.010Z,1004.4
2017-08-23T10:34:54.648Z,1004.4
2017-08-23T10:35:56.264Z,1004.4
2017-08-23T10:36:57.863Z,1004.4
2017-08-23T10:37:59.459Z,1004.4
2017-08-23T10:39:01.110Z,1004.4
2017-08-23T10:40:02.829Z,1004.5
2017-08-23T10:41:04.556Z,1004.4
2017-08-23T10:42:06.344Z,1004.4
2017-08-23T10:43:07.971Z,1004.4
2017-08-23T10:44:09.596Z,1004.4
2017-08-23T10:45:11.256Z,1004.4
2017-08-23T10:46:12.873Z,1004.4
2017-08-23T10:47:14.588Z,1004.4
2017-08-23T10:48:16.344Z,1004.4
2017-08-23T10:49:17.945Z,1004.3
2017-08-23T10:50:19.671Z,1004.3
2017-08-23T10:51:21.323Z,1004.4
2017-08-23T10:52:22.962Z,1004.4
2017-08-23T10:53:24.792Z,1004.3
2017-08-23T10:54:26.430Z,1004.2
2017-08-23T10:55:28.239Z,1004.2
2017-08-23T10:56:30.040Z,1004.3
2017-08-23T10:57:31.607Z,1004.2
2017-08-23T10:58:33.194Z,1004.2
2017-08-23T10:59:34.917Z,1004.2
2017-08-23T11:00:36.581Z,1004.2
2017-08-23T11:01:38.197Z,1004.2
2017-08-23T11:02:39.882Z,1004.2
2017-08-23T11:03:41.546Z,1004.3
2017-08-23T11:04:43.252Z,1004.2
2017-08-23T11:05:44.909Z,1004.2
2017-08-23T11:06:46.601Z,1004.2
2017-08-23T11:07:48.223Z,1004.2
2017-08-23T11:08:49.859Z,1004.2
2017-08-23T11:09:51.505Z,1004.2
2017-08-23T11:10:53.202Z,1004.1
2017-08-23T11:11:55.042Z,1004.2
2017-08-23T11:12:56.799Z,1004.2
2017-08-23T11:13:58.801Z,1004.2
2017-08-23T11:15:00.698Z,1004.2
2017-08-23T11:16:02.473Z,1004.2
2017-08-23T11:17:04.362Z,1004.2
2017-08-23T11:18:06.290Z,1004.2
2017-08-23T11:19:08.003Z,1004.1
2017-08-23T11:20:09.673Z,1004.2
2017-08-23T11:21:11.449Z,1004.2
2017-08-23T11:22:13.167Z,1004.2
2017-08-23T11:23:14.852Z,1004.1
2017-08-23T11:24:16.646Z,1004.1
2017-08-23T11:25:19.170Z,1004.0
2017-08-23T11:26:21.565Z,1004.0
2017-08-23T11:27:26.112Z,1004.1
2017-08-23T11:28:27.823Z,1004.1
2017-08-23T11:29:29.560Z,1004.1
2017-08-23T11:30:31.233Z,1004.0
2017-08-23T11:31:33.099Z,1004.1
2017-08-23T11:32:34.771Z,1004.0
2017-08-23T11:33:36.515Z,1004.1
2017-08-23T11:34:38.267Z,1004.1
2017-08-23T11:35:39.871Z,1004.1
2017-08-23T11:36:41.615Z,1004.1
2017-08-23T11:37:43.383Z,1004.0
2017-08-23T11:38:45.033Z,1004.0
2017-08-23T11:39:46.701Z,1004.0
2017-08-23T11:40:48.612Z,1004.0
2017-08-23T11:41:50.389Z,1004.0
2017-08-23T11:42:52.263Z,1004.0
2017-08-23T11:43:54.447Z,1004.0
2017-08-23T11:44:56.050Z,1004.0
2017-08-23T11:45:58.108Z,1004.0
2017-08-23T11:47:00.436Z,1004.0
2017-08-23T11:48:02.724Z,1004.0
2017-08-23T11:49:05.280Z,1004.0
2017-08-23T11:50:08.013Z,1004.0
2017-08-23T11:51:10.886Z,1003.9
2017-08-23T11:52:13.489Z,1003.9
2017-08-23T11:53:15.701Z,1004.0
2017-08-23T11:54:18.405Z,1003.9
2017-08-23T11:55:21.141Z,1003.9
2017-08-23T11:56:23.629Z,1004.0
2017-08-23T11:57:25.871Z,1003.9
2017-08-23T11:58:28.363Z,1003.9
2017-08-23T11:59:30.739Z,1004.0
2017-08-23T12:00:33.351Z,1004.0
2017-08-23T12:01:35.530Z,1004.0
2017-08-23T12:02:37.583Z,1003.9
2017-08-23T12:03:39.365Z,1004.0
2017-08-23T12:04:41.256Z,1004.0
2017-08-23T12:05:43.011Z,1004.0
2017-08-23T12:06:44.708Z,1004.0
2017-08-23T12:07:47.105Z,1004.0
2017-08-23T12:08:49.483Z,1004.0
2017-08-23T12:09:51.832Z,1003.9
2017-08-23T12:10:54.410Z,1004.0
2017-08-23T12:11:57.511Z,1003.9
2017-08-23T12:13:00.387Z,1004.0
2017-08-23T12:14:03.405Z,1003.9
2017-08-23T12:15:06.400Z,1003.9
2017-08-23T12:16:08.886Z,1003.9
2017-08-23T12:17:11.169Z,1003.9
2017-08-23T12:18:13.562Z,1003.9
2017-08-23T12:19:15.811Z,1003.9
2017-08-23T12:20:17.910Z,1004.0
2017-08-23T12:21:19.511Z,1003.9
2017-08-23T12:22:21.200Z,1004.0
2017-08-23T12:23:23.256Z,1003.9
2017-08-23T12:24:25.813Z,1003.9
2017-08-23T12:25:28.090Z,1003.9
2017-08-23T12:26:30.477Z,1003.9
2017-08-23T12:27:33.175Z,1004.0
2017-08-23T12:28:35.577Z,1004.0
2017-08-23T12:29:37.989Z,1004.0
2017-08-23T12:30:39.656Z,1004.0
2017-08-23T12:31:42.076Z,1004.0
2017-08-23T12:32:44.232Z,1003.9
2017-08-23T12:33:46.376Z,1003.9
2017-08-23T12:34:48.541Z,1003.9
2017-08-23T12:35:50.586Z,1003.9
2017-08-23T12:36:52.551Z,1003.9
2017-08-23T12:37:54.607Z,1003.9
2017-08-23T12:38:56.431Z,1003.9
2017-08-23T12:39:58.016Z,1004.0
2017-08-23T12:40:59.674Z,1003.9
2017-08-23T12:42:01.519Z,1004.0
2017-08-23T12:43:03.276Z,1004.0
2017-08-23T12:44:05.064Z,1003.9
2017-08-23T12:45:06.766Z,1003.9
2017-08-23T12:46:08.396Z,1003.9
2017-08-23T12:47:10.275Z,1003.9
2017-08-23T12:48:12.620Z,1003.9
2017-08-23T12:49:14.334Z,1003.9
2017-08-23T12:50:16.134Z,1003.8
2017-08-23T12:51:17.839Z,1003.8
2017-08-23T12:52:19.661Z,1003.8
2017-08-23T12:53:21.631Z,1003.8